Time;durP1;ratioP1;P1;durP2;ratioP2;P2;SDS_P1;SDS_P2;PMS_P1;PMS_P2;Temp;Humidity;BMP_temperature;BMP_pressure;BME280_temperature;BME280_humidity;BME280_pressure;Samples;Min_cycle;Max_cycle;Signal;HPM_P1;HPM_P2
2022/04/26 03:38:32;;;;;;;17.55;5.80;;;6.10;99.90;;;;;;5101272;28;20042;-70
2022/04/26 03:40:57;;;;;;;16.88;5.70;;;6.10;99.90;;;;;;5092068;28;20127;-70
2022/04/26 03:43:23;;;;;;;13.52;5.55;;;6.10;99.90;;;;;;5087390;28;20462;-70
2022/04/26 03:45:48;;;;;;;14.18;5.82;;;6.10;99.90;;;;;;5105833;27;20051;-70
2022/04/26 03:48:14;;;;;;;18.60;6.22;;;6.10;99.90;;;;;;5087558;28;20047;-70
2022/04/26 03:50:40;;;;;;;18.67;6.05;;;6.10;99.90;;;;;;5079676;28;20612;-71
2022/04/26 03:53:06;;;;;;;13.27;5.53;;;6.10;99.90;;;;;;5108627;27;20035;-70
2022/04/26 03:55:31;;;;;;;14.07;5.57;;;6.10;99.90;;;;;;5109773;27;20050;-70
2022/04/26 03:57:57;;;;;;;12.23;5.68;;;6.10;99.90;;;;;;5091845;28;20059;-70
2022/04/26 04:00:24;;;;;;;20.95;7.38;;;6.10;99.90;;;;;;5084748;28;20119;-70
2022/04/26 04:02:49;;;;;;;14.65;5.53;;;6.10;99.90;;;;;;5108276;27;20035;-70
2022/04/26 04:05:15;;;;;;;13.15;5.90;;;6.10;99.90;;;;;;5087441;28;20051;-70
2022/04/26 04:07:40;;;;;;;10.63;4.82;;;6.10;99.90;;;;;;5112475;27;20039;-70
2022/04/26 04:10:07;;;;;;;18.02;6.20;;;6.20;99.90;;;;;;5107130;27;20399;-71
2022/04/26 04:12:32;;;;;;;15.23;6.38;;;6.20;99.90;;;;;;5104952;27;20189;-70
2022/04/26 04:14:58;;;;;;;18.63;5.40;;;6.20;99.90;;;;;;5106081;28;20077;-70
2022/04/26 04:17:24;;;;;;;15.43;6.63;;;6.20;99.90;;;;;;5102052;28;20491;-70
2022/04/26 04:19:49;;;;;;;18.48;6.53;;;6.20;99.90;;;;;;5106687;28;20044;-71
2022/04/26 04:22:15;;;;;;;19.80;5.72;;;6.20;99.90;;;;;;5110061;27;20049;-70
2022/04/26 04:24:41;;;;;;;18.77;6.30;;;6.20;99.90;;;;;;5086496;28;20054;-70
2022/04/26 04:27:09;;;;;;;13.70;6.40;;;6.20;99.90;;;;;;5106252;28;20039;-70
2022/04/26 04:29:34;;;;;;;22.10;6.65;;;6.20;99.90;;;;;;5110323;28;20036;-70
2022/04/26 04:32:01;;;;;;;16.48;7.32;;;6.20;99.90;;;;;;5094200;28;20521;-70
2022/04/26 04:34:26;;;;;;;18.48;6.97;;;6.20;99.90;;;;;;5106340;28;20092;-70
2022/04/26 04:36:52;;;;;;;19.02;7.05;;;6.20;99.90;;;;;;5106372;28;20040;-70
2022/04/26 04:39:23;;;;;;;20.17;6.97;;;6.20;99.90;;;;;;5111187;27;20071;-70
2022/04/26 04:41:49;;;;;;;15.63;7.75;;;6.20;99.90;;;;;;5099287;27;20101;-70
2022/04/26 04:44:15;;;;;;;15.35;6.53;;;6.20;99.90;;;;;;5091944;27;20072;-69
2022/04/26 04:46:40;;;;;;;16.17;6.78;;;6.20;99.90;;;;;;5092627;27;20076;-70
2022/04/26 04:49:06;;;;;;;19.35;7.93;;;6.20;99.90;;;;;;5095267;27;20043;-70
2022/04/26 04:51:31;;;;;;;21.52;7.28;;;6.30;99.90;;;;;;5112265;27;20035;-69
2022/04/26 04:53:57;;;;;;;19.65;6.85;;;6.30;99.90;;;;;;5094585;28;20583;-70
2022/04/26 04:56:26;;;;;;;15.18;6.35;;;6.40;99.90;;;;;;5082230;28;20143;-69
2022/04/26 04:58:53;;;;;;;15.52;6.07;;;6.40;99.90;;;;;;5111502;27;20036;-69
2022/04/26 05:01:18;;;;;;;14.77;6.00;;;6.40;99.90;;;;;;5107909;27;20047;-70
2022/04/26 05:03:44;;;;;;;15.75;5.65;;;6.50;99.90;;;;;;5114784;27;20597;-70
2022/04/26 05:06:15;;;;;;;13.95;5.22;;;6.50;99.90;;;;;;5097518;27;20162;-70
2022/04/26 05:08:42;;;;;;;17.05;5.82;;;6.50;99.90;;;;;;5110367;27;20039;-71
2022/04/26 05:11:08;;;;;;;13.88;6.13;;;6.60;99.90;;;;;;5084062;28;20089;-70
2022/04/26 05:13:34;;;;;;;13.55;5.78;;;6.70;99.90;;;;;;5086001;27;20044;-70
2022/04/26 05:16:00;;;;;;;12.70;5.32;;;6.80;99.90;;;;;;5109051;27;20050;-70
2022/04/26 05:18:27;;;;;;;15.80;5.57;;;6.80;99.90;;;;;;5106716;27;20040;-70
2022/04/26 05:20:53;;;;;;;13.77;5.95;;;6.90;99.90;;;;;;5098309;27;20044;-71
2022/04/26 05:26:03;;;;;;;9.73;5.25;;;7.00;99.90;;;;;;5110281;27;20413;-70
2022/04/26 05:28:29;;;;;;;10.60;5.45;;;7.10;99.90;;;;;;5105049;27;20059;-71
2022/04/26 05:30:55;;;;;;;17.25;6.05;;;7.20;99.90;;;;;;5102645;28;20795;-71
2022/04/26 05:33:26;;;;;;;17.10;7.25;;;7.30;99.90;;;;;;5111774;27;20047;-70
2022/04/26 05:35:52;;;;;;;11.82;5.43;;;7.30;99.90;;;;;;5107701;27;20078;-70
2022/04/26 05:38:17;;;;;;;14.93;5.22;;;7.40;99.90;;;;;;5083721;28;20082;-71
2022/04/26 05:40:44;;;;;;;15.75;6.20;;;7.60;99.90;;;;;;5110687;27;20390;-71
2022/04/26 05:43:10;;;;;;;13.70;6.05;;;7.60;99.90;;;;;;5109895;27;20084;-70
2022/04/26 05:45:36;;;;;;;15.52;6.72;;;7.60;99.90;;;;;;5100462;27;20093;-70
2022/04/26 05:48:03;;;;;;;19.08;6.75;;;7.60;99.90;;;;;;5092387;27;20510;-71
2022/04/26 05:50:29;;;;;;;16.67;6.40;;;7.70;99.90;;;;;;5106764;27;20104;-71
2022/04/26 05:52:54;;;;;;;17.67;5.95;;;7.80;99.90;;;;;;5094301;27;20047;-71
2022/04/26 05:55:20;;;;;;;14.88;5.78;;;7.90;99.90;;;;;;5089429;27;20163;-71
2022/04/26 05:57:46;;;;;;;14.25;5.55;;;8.00;99.90;;;;;;5115140;27;20035;-70
2022/04/26 06:00:13;;;;;;;11.73;5.53;;;8.10;99.90;;;;;;5087843;28;20404;-70
2022/04/26 06:02:40;;;;;;;12.77;5.53;;;8.20;99.90;;;;;;5089036;27;20048;-70
2022/04/26 06:05:06;;;;;;;13.40;5.53;;;8.30;99.90;;;;;;5112168;27;20075;-69
2022/04/26 06:07:32;;;;;;;14.43;5.90;;;8.50;99.90;;;;;;5091911;27;20052;-70
2022/04/26 06:09:58;;;;;;;14.27;5.20;;;8.60;99.90;;;;;;5088395;27;20027;-69
2022/04/26 06:12:26;;;;;;;9.52;5.30;;;8.70;99.90;;;;;;5109826;27;20048;-70
2022/04/26 06:14:53;;;;;;;12.32;5.13;;;8.90;99.90;;;;;;5108091;27;20125;-70
2022/04/26 06:17:19;;;;;;;13.32;6.03;;;9.10;99.90;;;;;;5092950;28;20039;-70
2022/04/26 06:19:44;;;;;;;12.98;4.90;;;9.20;99.90;;;;;;5090530;28;20043;-70
2022/04/26 06:22:10;;;;;;;10.45;5.25;;;9.20;99.90;;;;;;5102499;27;20039;-70
2022/04/26 06:24:35;;;;;;;11.30;4.82;;;9.10;99.90;;;;;;5109193;27;20402;-71
2022/04/26 06:27:02;;;;;;;12.02;4.88;;;9.00;99.90;;;;;;5094150;27;20048;-70
2022/04/26 06:29:28;;;;;;;10.80;4.47;;;9.00;99.90;;;;;;5090757;28;20040;-69
2022/04/26 06:31:54;;;;;;;10.80;4.70;;;9.00;99.90;;;;;;5082605;27;20043;-70
2022/04/26 06:34:19;;;;;;;10.75;3.63;;;9.00;99.90;;;;;;5091135;28;20044;-70
2022/04/26 06:36:45;;;;;;;11.10;4.93;;;8.90;99.90;;;;;;5108449;27;20070;-70
2022/04/26 06:39:11;;;;;;;16.75;4.38;;;9.00;99.90;;;;;;5088924;27;20410;-70
2022/04/26 06:41:36;;;;;;;5.65;3.08;;;8.90;99.90;;;;;;5089898;27;20115;-70
2022/04/26 06:44:02;;;;;;;8.75;4.13;;;8.90;99.90;;;;;;5107195;27;20043;-70
2022/04/26 06:46:29;;;;;;;8.60;3.92;;;8.80;99.90;;;;;;5113802;27;20457;-70
2022/04/26 06:48:58;;;;;;;9.05;4.25;;;8.90;99.90;;;;;;5108696;27;20036;-70
2022/04/26 06:51:25;;;;;;;8.27;3.42;;;9.00;99.90;;;;;;5115312;27;20130;-70
2022/04/26 06:53:51;;;;;;;9.63;3.17;;;9.10;99.90;;;;;;5112179;27;20118;-70
2022/04/26 06:56:17;;;;;;;9.68;3.72;;;9.00;99.90;;;;;;5094036;27;20039;-70
2022/04/26 06:58:42;;;;;;;8.25;3.95;;;9.00;99.90;;;;;;5091422;27;20083;-70
2022/04/26 07:01:08;;;;;;;8.48;3.97;;;9.00;99.90;;;;;;5106074;27;20052;-70
2022/04/26 07:03:33;;;;;;;9.82;3.20;;;8.90;99.90;;;;;;5089416;27;20036;-70
2022/04/26 07:05:59;;;;;;;13.27;3.95;;;8.90;99.90;;;;;;5109814;27;20493;-70
2022/04/26 07:08:25;;;;;;;9.68;3.38;;;9.00;99.90;;;;;;5108030;27;20035;-70
2022/04/26 07:10:50;;;;;;;11.35;3.38;;;9.10;99.90;;;;;;5081645;28;20089;-70
2022/04/26 07:13:18;;;;;;;7.45;3.10;;;9.30;99.90;;;;;;5089849;27;20498;-70
2022/04/26 07:15:44;;;;;;;11.45;3.83;;;9.50;99.90;;;;;;5112015;27;20508;-71
2022/04/26 07:18:12;;;;;;;8.95;3.45;;;9.80;99.90;;;;;;5087027;27;20035;-71
2022/04/26 07:20:38;;;;;;;12.30;3.13;;;10.00;99.90;;;;;;5111259;27;20479;-71
2022/04/26 07:23:04;;;;;;;11.77;4.40;;;10.10;99.90;;;;;;5110640;27;20048;-72
2022/04/26 07:25:30;;;;;;;7.00;3.00;;;10.20;99.90;;;;;;5105652;27;20097;-71
2022/04/26 07:27:55;;;;;;;8.15;3.00;;;10.30;99.90;;;;;;5078464;28;20043;-71
2022/04/26 07:30:21;;;;;;;9.18;3.17;;;10.40;99.90;;;;;;5086592;28;21064;-71
2022/04/26 07:35:31;;;;;;;7.00;3.08;;;10.70;99.90;;;;;;5086895;27;20048;-71
2022/04/26 07:38:07;;;;;;;7.70;3.13;;;10.90;99.90;;;;;;5110815;27;20431;-71
2022/04/26 07:40:33;;;;;;;9.07;3.45;;;11.10;99.90;;;;;;5107328;27;20555;-71
2022/04/26 07:43:00;;;;;;;9.90;2.85;;;11.10;99.90;;;;;;5106076;27;20043;-71
2022/04/26 07:45:26;;;;;;;13.40;3.22;;;11.10;99.90;;;;;;5106391;27;20134;-71
2022/04/26 07:47:51;;;;;;;7.47;2.60;;;11.00;99.90;;;;;;5090101;28;20069;-71
2022/04/26 07:50:18;;;;;;;6.78;3.10;;;10.90;99.90;;;;;;5087962;28;20056;-71
2022/04/26 07:52:44;;;;;;;9.27;2.78;;;10.70;99.90;;;;;;5091639;28;20486;-71
2022/04/26 07:55:10;;;;;;;7.55;2.80;;;10.70;99.90;;;;;;5088009;27;20055;-71
2022/04/26 07:57:38;;;;;;;5.43;2.90;;;10.80;99.90;;;;;;5101702;27;20038;-71
2022/04/26 08:00:05;;;;;;;8.82;3.40;;;10.90;99.90;;;;;;5083681;27;20063;-71
2022/04/26 08:02:31;;;;;;;6.03;2.90;;;11.10;99.90;;;;;;5104445;27;20043;-71
2022/04/26 08:05:01;;;;;;;8.52;3.28;;;11.20;99.90;;;;;;5102593;28;20047;-71
2022/04/26 08:07:30;;;;;;;6.05;3.13;;;11.30;99.90;;;;;;5108307;28;20036;-71
2022/04/26 08:09:56;;;;;;;8.80;2.78;;;11.10;99.90;;;;;;5109158;27;20039;-71
2022/04/26 08:12:22;;;;;;;7.28;2.78;;;11.00;99.90;;;;;;5090126;28;20047;-71
2022/04/26 08:14:47;;;;;;;7.07;3.38;;;11.20;99.90;;;;;;5095692;28;20059;-71
2022/04/26 08:17:15;;;;;;;8.93;3.03;;;11.10;99.90;;;;;;5106559;28;20094;-71
2022/04/26 08:19:41;;;;;;;6.75;2.83;;;11.00;99.90;;;;;;5108607;28;20039;-71
2022/04/26 08:22:07;;;;;;;6.47;3.30;;;10.90;99.90;;;;;;5094568;28;20043;-71
2022/04/26 08:27:25;;;;;;;10.77;2.92;;;11.10;99.90;;;;;;5109758;28;20092;-69
2022/04/26 08:29:52;;;;;;;6.60;2.88;;;11.20;99.90;;;;;;5088752;28;20568;-69
2022/04/26 08:32:18;;;;;;;15.95;3.45;;;11.40;99.90;;;;;;5109110;28;20039;-69
2022/04/26 08:34:43;;;;;;;7.47;2.90;;;11.40;99.90;;;;;;5109146;28;20414;-68
2022/04/26 08:37:09;;;;;;;7.93;3.70;;;11.40;99.90;;;;;;5103298;28;20530;-71
2022/04/26 08:39:35;;;;;;;5.82;3.13;;;11.40;99.90;;;;;;5084857;28;20047;-70
2022/04/26 08:42:02;;;;;;;11.23;3.38;;;11.70;99.90;;;;;;5081554;28;20064;-70
2022/04/26 08:44:29;;;;;;;8.65;2.78;;;11.80;99.90;;;;;;5099628;28;20047;-71
2022/04/26 08:52:26;;;;;;;6.45;2.80;;;12.20;99.90;;;;;;5110363;28;20039;-70
2022/04/26 08:54:52;;;;;;;9.32;4.10;;;12.40;99.90;;;;;;5086954;28;20093;-70
2022/04/26 08:57:18;;;;;;;7.05;2.75;;;12.40;99.90;;;;;;5105264;28;20043;-76
2022/04/26 08:59:50;;;;;;;8.65;2.72;;;12.50;99.90;;;;;;5086039;28;20531;-74
2022/04/26 09:02:23;;;;;;;6.05;2.55;;;12.40;99.90;;;;;;5088800;28;20052;-69
2022/04/26 09:04:59;;;;;;;6.18;2.40;;;12.10;99.90;;;;;;5089546;28;20035;-69
2022/04/26 09:07:29;;;;;;;8.13;2.30;;;12.00;99.90;;;;;;5103934;28;20134;-69
2022/04/26 09:10:09;;;;;;;6.93;2.47;;;12.10;99.90;;;;;;5087597;28;20092;-70
2022/04/26 09:13:04;;;;;;;6.90;2.63;;;12.20;99.90;;;;;;5080352;28;20126;-70
2022/04/26 09:15:51;;;;;;;6.28;2.78;;;12.40;99.90;;;;;;5084770;28;20043;-70
2022/04/26 09:18:29;;;;;;;6.38;2.65;;;12.60;99.90;;;;;;5102622;28;20465;-70
2022/04/26 09:21:05;;;;;;;10.18;2.50;;;12.70;99.90;;;;;;5106700;28;20443;-70
2022/04/26 09:23:32;;;;;;;7.80;2.65;;;12.80;99.90;;;;;;5109445;28;21482;-69
2022/04/26 09:26:08;;;;;;;5.55;2.45;;;13.00;99.90;;;;;;5110273;27;20402;-69
2022/04/26 09:28:37;;;;;;;5.93;2.30;;;13.00;99.90;;;;;;5109925;27;20104;-71
2022/04/26 09:31:22;;;;;;;10.75;2.83;;;13.10;99.90;;;;;;5109487;27;20589;-71
2022/04/26 09:34:06;;;;;;;6.13;2.50;;;13.10;99.90;;;;;;5100696;27;20040;-70
2022/04/26 09:36:42;;;;;;;9.77;3.20;;;13.20;99.90;;;;;;5109788;27;20054;-70
2022/04/26 09:39:09;;;;;;;6.70;2.38;;;13.20;99.90;;;;;;5116672;27;20043;-71
2022/04/26 09:41:35;;;;;;;7.47;3.10;;;13.20;99.90;;;;;;5095764;27;20097;-71
2022/04/26 09:44:08;;;;;;;8.55;2.70;;;13.40;99.90;;;;;;5103397;27;20044;-70
2022/04/26 09:46:40;;;;;;;5.72;2.40;;;13.50;99.90;;;;;;5078523;28;20280;-71
2022/04/26 09:49:09;;;;;;;6.03;2.35;;;13.60;99.90;;;;;;5108905;27;20045;-70
2022/04/26 09:51:36;;;;;;;8.10;2.75;;;13.80;99.90;;;;;;5089566;28;20047;-70
2022/04/26 09:54:02;;;;;;;8.73;3.22;;;13.80;99.90;;;;;;5092325;27;20039;-70
2022/04/26 09:56:30;;;;;;;7.00;2.47;;;13.80;99.90;;;;;;5116465;27;20502;-71
2022/04/26 09:58:58;;;;;;;6.13;2.42;;;13.70;99.90;;;;;;5102216;28;20039;-70
2022/04/26 10:01:30;;;;;;;6.45;2.85;;;13.80;99.90;;;;;;5106175;27;20043;-70
2022/04/26 10:04:03;;;;;;;6.65;2.60;;;13.90;99.90;;;;;;5078810;27;20046;-71
2022/04/26 10:06:34;;;;;;;7.47;2.78;;;13.70;99.90;;;;;;5090305;28;20035;-70
2022/04/26 10:09:02;;;;;;;7.60;2.58;;;13.30;99.90;;;;;;5111269;27;20494;-72
2022/04/26 10:11:29;;;;;;;4.30;2.20;;;13.30;99.90;;;;;;5091849;27;20044;-70
2022/04/26 10:13:55;;;;;;;6.55;2.28;;;13.40;99.90;;;;;;5086311;27;20414;-71
2022/04/26 10:16:22;;;;;;;16.85;3.10;;;13.50;99.90;;;;;;5094364;28;20074;-72
2022/04/26 10:18:48;;;;;;;5.07;2.33;;;13.40;99.90;;;;;;5104379;27;20097;-72
2022/04/26 10:21:22;;;;;;;5.22;2.55;;;13.30;99.90;;;;;;5108197;27;20055;-71
2022/04/26 10:23:51;;;;;;;5.10;2.40;;;13.40;99.90;;;;;;5112328;27;20129;-71
2022/04/26 10:26:23;;;;;;;6.13;2.83;;;13.70;99.90;;;;;;5112347;27;20044;-72
2022/04/26 10:28:52;;;;;;;6.53;2.50;;;13.80;99.90;;;;;;5109717;27;20060;-72
2022/04/26 10:31:18;;;;;;;5.95;2.80;;;13.80;99.90;;;;;;5108134;27;20122;-71
2022/04/26 10:33:45;;;;;;;6.35;2.60;;;13.90;99.90;;;;;;5092926;27;20048;-72
2022/04/26 10:36:20;;;;;;;9.00;2.67;;;13.80;99.90;;;;;;5101474;27;20154;-71
2022/04/26 10:39:13;;;;;;;7.18;2.70;;;13.50;99.90;;;;;;5103464;27;20051;-71
2022/04/26 10:41:46;;;;;;;4.68;2.35;;;13.20;99.90;;;;;;5086811;27;20663;-71
2022/04/26 10:44:24;;;;;;;9.50;2.28;;;13.40;99.90;;;;;;5105249;27;20487;-71
2022/04/26 10:46:56;;;;;;;4.93;2.30;;;13.50;99.90;;;;;;5109826;27;20043;-71
2022/04/26 10:49:25;;;;;;;5.68;2.25;;;13.80;99.90;;;;;;5096395;28;20259;-71
2022/04/26 10:51:57;;;;;;;9.55;2.60;;;14.00;99.90;;;;;;5083646;27;20062;-72
2022/04/26 10:54:53;;;;;;;6.85;2.80;;;14.10;99.90;;;;;;5096312;27;20039;-72
2022/04/26 10:57:23;;;;;;;4.60;2.00;;;13.90;99.90;;;;;;5070803;27;20040;-71
2022/04/26 10:59:53;;;;;;;6.25;2.40;;;13.60;99.90;;;;;;5082719;27;20062;-71
2022/04/26 11:02:21;;;;;;;5.60;2.38;;;13.60;99.90;;;;;;5103544;28;20047;-71
2022/04/26 11:04:54;;;;;;;7.20;2.80;;;13.80;99.90;;;;;;5103469;27;20490;-71
2022/04/26 11:07:25;;;;;;;4.88;2.83;;;14.00;99.90;;;;;;5101687;27;20060;-71
2022/04/26 11:09:54;;;;;;;5.88;2.28;;;14.00;99.90;;;;;;5106115;27;20035;-71
2022/04/26 11:12:27;;;;;;;7.57;3.25;;;13.90;99.90;;;;;;5101405;27;20068;-72
2022/04/26 11:14:55;;;;;;;3.70;2.35;;;14.00;99.90;;;;;;5103088;27;20046;-71
2022/04/26 11:17:25;;;;;;;9.48;2.33;;;14.10;99.90;;;;;;5103274;27;20053;-71
2022/04/26 11:20:02;;;;;;;4.65;2.75;;;14.20;99.90;;;;;;5101098;27;20100;-71
2022/04/26 11:22:28;;;;;;;8.25;2.25;;;14.00;99.90;;;;;;5105648;27;20044;-72
2022/04/26 11:28:06;;;;;;;7.88;2.75;;;13.80;99.90;;;;;;5101253;27;20032;-72
2022/04/26 11:30:38;;;;;;;6.07;2.15;;;14.20;99.90;;;;;;5084620;28;20169;-72
2022/04/26 11:33:06;;;;;;;4.40;2.33;;;14.40;99.90;;;;;;5084525;27;20245;-72
2022/04/26 11:35:34;;;;;;;5.18;2.40;;;14.30;99.90;;;;;;5086837;28;20036;-72
2022/04/26 11:38:13;;;;;;;7.32;2.35;;;14.20;99.90;;;;;;5101836;27;20151;-72
2022/04/26 11:40:46;;;;;;;7.22;2.35;;;14.00;99.90;;;;;;5077834;28;20039;-72
2022/04/26 11:43:14;;;;;;;5.80;2.45;;;14.40;99.90;;;;;;5105458;27;20035;-71
2022/04/26 11:45:42;;;;;;;9.30;2.30;;;14.60;99.90;;;;;;5108553;27;20047;-72
2022/04/26 11:48:09;;;;;;;8.48;2.67;;;14.90;99.90;;;;;;5105383;27;20085;-72
2022/04/26 11:50:35;;;;;;;5.93;2.13;;;15.00;99.90;;;;;;5111610;27;20499;-73
2022/04/26 11:53:06;;;;;;;8.90;2.80;;;15.20;99.90;;;;;;5099331;27;20047;-73
2022/04/26 11:55:33;;;;;;;5.97;2.50;;;15.40;99.90;;;;;;5088202;28;20092;-73
2022/04/26 11:58:12;;;;;;;6.55;2.40;;;15.50;99.90;;;;;;5107870;27;20036;-72
2022/04/26 12:00:56;;;;;;;6.82;2.33;;;15.30;99.90;;;;;;5094933;27;20576;-72
2022/04/26 12:03:25;;;;;;;6.50;2.53;;;15.00;99.90;;;;;;5106225;27;21735;-72
2022/04/26 12:05:54;;;;;;;5.80;3.42;;;14.80;99.90;;;;;;5114234;27;20052;-72
2022/04/26 12:08:21;;;;;;;5.35;2.28;;;14.40;99.90;;;;;;5104562;27;20044;-71
2022/04/26 12:10:48;;;;;;;3.83;2.35;;;14.20;99.90;;;;;;5101269;27;20044;-73
2022/04/26 12:13:15;;;;;;;4.60;2.45;;;14.10;99.90;;;;;;5091756;28;20535;-72
2022/04/26 12:15:42;;;;;;;6.53;2.15;;;14.00;99.90;;;;;;5090990;27;20035;-72
2022/04/26 12:18:13;;;;;;;4.25;2.20;;;13.90;99.90;;;;;;5088937;28;20392;-72
2022/04/26 12:20:58;;;;;;;6.10;2.63;;;13.90;99.90;;;;;;5109585;27;20533;-73
2022/04/26 12:23:24;;;;;;;6.43;2.10;;;14.20;99.90;;;;;;5087650;28;20044;-73
2022/04/26 12:25:54;;;;;;;9.73;3.10;;;14.60;99.90;;;;;;5107859;27;20078;-73
2022/04/26 12:28:20;;;;;;;5.03;2.38;;;14.70;99.90;;;;;;5100892;28;20035;-73
2022/04/26 12:30:46;;;;;;;5.63;2.50;;;14.50;99.90;;;;;;5096647;28;20395;-72
2022/04/26 12:33:23;;;;;;;6.32;2.78;;;14.50;99.90;;;;;;5107477;28;20036;-72
2022/04/26 12:36:02;;;;;;;6.10;2.83;;;14.30;99.90;;;;;;5106833;28;20407;-72
2022/04/26 12:38:28;;;;;;;6.38;2.17;;;14.00;99.90;;;;;;5102551;28;20055;-72
2022/04/26 12:41:02;;;;;;;6.63;2.47;;;13.80;99.90;;;;;;5081769;28;20044;-72
2022/04/26 12:43:28;;;;;;;3.53;1.95;;;13.70;99.90;;;;;;5100482;28;20043;-72
2022/04/26 12:45:58;;;;;;;6.13;2.85;;;13.70;99.90;;;;;;5105706;28;20048;-72
2022/04/26 12:51:17;;;;;;;6.78;2.15;;;13.70;99.90;;;;;;5086007;28;20119;-71
2022/04/26 12:53:45;;;;;;;7.97;2.58;;;13.50;99.90;;;;;;5095912;28;20147;-72
2022/04/26 12:56:11;;;;;;;4.35;2.70;;;13.60;99.90;;;;;;5106511;28;20054;-72
2022/04/26 12:58:42;;;;;;;5.88;2.72;;;13.90;99.90;;;;;;5101772;27;20131;-72
2022/04/26 13:01:08;;;;;;;6.57;2.38;;;14.20;99.90;;;;;;5087781;27;20491;-72
2022/04/26 13:03:35;;;;;;;7.28;2.30;;;14.20;99.90;;;;;;5084424;27;20060;-72
2022/04/26 13:06:13;;;;;;;5.50;2.45;;;14.10;99.90;;;;;;5105755;27;20598;-72
2022/04/26 13:08:41;;;;;;;6.30;2.65;;;14.10;99.90;;;;;;5079387;27;20044;-72
2022/04/26 13:11:08;;;;;;;6.07;3.15;;;14.10;99.90;;;;;;5112288;27;20145;-72
2022/04/26 13:13:39;;;;;;;6.07;2.85;;;14.00;99.90;;;;;;5091244;27;20050;-72
2022/04/26 13:16:05;;;;;;;6.03;2.47;;;14.10;99.90;;;;;;5115543;27;20092;-72
2022/04/26 13:18:31;;;;;;;11.48;3.05;;;14.40;99.90;;;;;;5097677;27;20152;-72
2022/04/26 13:20:57;;;;;;;9.02;2.33;;;14.70;99.90;;;;;;5103923;27;20503;-72
2022/04/26 13:23:24;;;;;;;5.20;2.40;;;14.90;99.90;;;;;;5115920;27;20044;-72
2022/04/26 13:25:50;;;;;;;7.25;2.33;;;15.00;99.90;;;;;;5099944;27;20043;-72
2022/04/26 13:28:16;;;;;;;5.40;2.33;;;14.80;99.90;;;;;;5110232;27;20514;-72
2022/04/26 13:30:42;;;;;;;5.93;2.45;;;14.90;99.90;;;;;;5112154;27;20075;-73
2022/04/26 13:33:08;;;;;;;6.18;2.28;;;15.00;99.90;;;;;;5091457;28;20100;-72
2022/04/26 13:35:35;;;;;;;6.20;2.55;;;15.20;99.90;;;;;;5098844;27;20398;-70
2022/04/26 13:38:01;;;;;;;5.18;1.90;;;15.10;99.90;;;;;;5109159;27;20062;-70
2022/04/26 13:40:27;;;;;;;5.65;2.85;;;15.00;99.90;;;;;;5093340;28;20067;-70
2022/04/26 13:42:53;;;;;;;8.32;2.85;;;14.90;99.90;;;;;;5111338;27;20173;-72
2022/04/26 13:45:20;;;;;;;4.18;2.00;;;15.00;99.90;;;;;;5086152;27;20130;-73
2022/04/26 13:47:46;;;;;;;4.03;2.05;;;15.10;99.90;;;;;;5093668;27;20043;-72
2022/04/26 13:50:12;;;;;;;5.80;2.30;;;15.40;99.90;;;;;;5105873;27;20051;-70
2022/04/26 13:52:41;;;;;;;8.60;2.72;;;15.80;99.90;;;;;;5098816;27;20096;-72
2022/04/26 13:55:06;;;;;;;8.60;2.08;;;15.90;99.90;;;;;;5107260;27;20066;-71
2022/04/26 13:57:32;;;;;;;7.18;2.47;;;16.00;98.50;;;;;;5110935;27;20407;-72
2022/04/26 13:59:58;;;;;;;4.25;2.35;;;16.10;99.90;;;;;;5093431;27;20304;-70
2022/04/26 14:02:24;;;;;;;6.15;2.50;;;16.30;99.90;;;;;;5077858;28;20569;-72
2022/04/26 14:04:50;;;;;;;6.00;2.65;;;16.30;99.30;;;;;;5107826;27;20054;-71
2022/04/26 14:07:17;;;;;;;7.05;2.45;;;16.20;99.80;;;;;;5095747;27;20053;-71
2022/04/26 14:09:43;;;;;;;5.93;2.35;;;16.30;99.90;;;;;;5108025;27;20068;-71
2022/04/26 14:12:11;;;;;;;6.68;2.33;;;16.00;99.90;;;;;;5092297;27;20049;-71
2022/04/26 14:22:51;;;;;;;9.18;3.13;;;14.70;99.90;;;;;;5088987;27;20092;-71
2022/04/26 14:25:16;;;;;;;6.50;2.67;;;14.50;99.90;;;;;;5109684;27;20051;-71
2022/04/26 14:27:44;;;;;;;8.25;2.65;;;14.50;99.90;;;;;;5110962;27;20447;-71
2022/04/26 14:30:12;;;;;;;6.22;3.20;;;14.40;99.90;;;;;;5087761;27;20073;-71
2022/04/26 14:32:38;;;;;;;5.22;2.67;;;14.20;99.90;;;;;;5110784;27;20031;-71
2022/04/26 14:35:04;;;;;;;5.10;2.55;;;14.10;99.90;;;;;;5106798;27;20043;-71
2022/04/26 14:37:29;;;;;;;6.88;2.40;;;14.00;99.90;;;;;;5113845;27;20043;-71
2022/04/26 14:39:55;;;;;;;6.70;2.63;;;14.00;99.90;;;;;;5110678;27;20509;-71
2022/04/26 14:42:21;;;;;;;6.18;2.28;;;14.30;99.90;;;;;;5108113;27;20055;-71
2022/04/26 14:44:47;;;;;;;6.85;2.17;;;14.50;99.90;;;;;;5105201;27;20047;-71
2022/04/26 14:47:13;;;;;;;5.45;2.38;;;14.50;99.70;;;;;;5109265;27;20104;-71
2022/04/26 14:49:39;;;;;;;5.68;2.17;;;14.70;99.90;;;;;;5087792;28;20043;-71
2022/04/26 14:52:06;;;;;;;7.30;2.35;;;14.70;99.50;;;;;;5101531;28;20134;-73
2022/04/26 14:54:33;;;;;;;4.50;2.58;;;14.60;99.90;;;;;;5080034;28;20040;-71
2022/04/26 14:56:58;;;;;;;6.53;2.47;;;14.30;99.80;;;;;;5109030;27;20508;-71
2022/04/26 14:59:25;;;;;;;6.15;2.50;;;14.10;99.60;;;;;;5091504;28;20088;-71
2022/04/26 15:01:51;;;;;;;6.70;2.40;;;14.00;99.80;;;;;;5084636;28;20054;-72
2022/04/26 15:04:18;;;;;;;6.28;2.65;;;14.10;99.90;;;;;;5083579;27;20052;-72
2022/04/26 15:06:45;;;;;;;4.57;2.03;;;14.10;98.80;;;;;;5106490;27;20134;-72
2022/04/26 15:17:25;;;;;;;9.65;2.53;;;14.10;99.00;;;;;;5085369;27;20509;-72
2022/04/26 15:19:51;;;;;;;6.50;2.22;;;14.00;99.20;;;;;;5103344;27;20048;-72
2022/04/26 15:22:19;;;;;;;6.32;2.38;;;13.90;97.60;;;;;;5089428;28;20122;-71
2022/04/26 15:24:48;;;;;;;6.57;2.63;;;13.70;97.50;;;;;;5107750;27;20122;-72
2022/04/26 15:27:18;;;;;;;4.03;1.90;;;13.70;97.80;;;;;;5071976;27;20119;-71
2022/04/26 15:29:45;;;;;;;7.60;2.30;;;13.80;98.90;;;;;;5101101;27;20070;-72
2022/04/26 15:32:11;;;;;;;6.15;2.60;;;13.90;99.60;;;;;;5088046;27;20047;-71
2022/04/26 15:34:37;;;;;;;6.93;2.15;;;14.00;99.10;;;;;;5106014;27;20460;-71
2022/04/26 15:37:04;;;;;;;4.30;1.92;;;14.10;98.30;;;;;;5107315;27;20089;-71
2022/04/26 15:39:29;;;;;;;7.00;2.30;;;14.10;98.40;;;;;;5098036;27;20136;-71
2022/04/26 15:41:56;;;;;;;6.32;2.40;;;13.90;98.50;;;;;;5098227;28;20060;-71
2022/04/26 15:44:23;;;;;;;8.88;2.33;;;13.70;98.40;;;;;;5105334;27;20038;-72
2022/04/26 15:46:52;;;;;;;9.65;2.42;;;13.60;99.90;;;;;;5106684;27;20039;-72
2022/04/26 15:49:19;;;;;;;4.43;2.30;;;13.60;99.80;;;;;;5093506;27;20035;-72
2022/04/26 15:51:45;;;;;;;8.63;2.38;;;13.60;99.90;;;;;;5105494;27;20081;-72
2022/04/26 15:54:10;;;;;;;5.90;2.00;;;13.50;99.90;;;;;;5096142;27;20493;-71
2022/04/26 15:56:36;;;;;;;6.22;2.50;;;13.40;99.90;;;;;;5106899;27;20063;-72
2022/04/26 15:59:02;;;;;;;6.82;2.03;;;13.20;99.90;;;;;;5087740;27;20127;-71
2022/04/26 16:01:28;;;;;;;4.53;2.20;;;13.10;99.90;;;;;;5110090;27;20048;-71
2022/04/26 16:03:54;;;;;;;6.88;2.65;;;12.90;99.70;;;;;;5109157;27;20051;-72
2022/04/26 16:06:20;;;;;;;6.50;2.42;;;12.70;99.90;;;;;;5084655;27;20047;-71
2022/04/26 16:08:46;;;;;;;5.80;2.17;;;12.60;99.90;;;;;;5105352;27;20066;-71
2022/04/26 16:22:19;;;;;;;6.57;2.83;;;13.70;99.40;;;;;;5079855;27;20269;-72
2022/04/26 16:24:44;;;;;;;8.07;2.97;;;13.70;99.80;;;;;;5096209;28;20189;-72
2022/04/26 16:27:10;;;;;;;30.08;6.28;;;13.40;99.70;;;;;;5107287;27;20528;-71
2022/04/26 16:29:36;;;;;;;6.18;2.33;;;13.20;99.90;;;;;;5074333;28;20035;-72
2022/04/26 16:32:02;;;;;;;6.97;2.10;;;13.00;99.90;;;;;;5082216;28;20050;-72
2022/04/26 16:34:29;;;;;;;4.93;2.08;;;12.80;99.90;;;;;;5087681;28;20043;-72
2022/04/26 16:36:54;;;;;;;6.82;2.08;;;12.60;99.90;;;;;;5105612;28;20036;-72
2022/04/26 16:39:20;;;;;;;8.50;2.28;;;12.80;99.90;;;;;;5106410;28;22311;-71
2022/04/26 16:41:46;;;;;;;6.25;2.08;;;13.20;99.90;;;;;;5106301;28;20440;-72
2022/04/26 16:44:11;;;;;;;7.18;2.30;;;13.70;99.90;;;;;;5085561;28;20040;-71
2022/04/26 16:46:37;;;;;;;21.70;2.40;;;14.20;99.90;;;;;;5082665;28;20117;-72
2022/04/26 16:49:03;;;;;;;6.28;2.03;;;14.40;99.90;;;;;;5098281;28;20096;-72
2022/04/26 16:51:30;;;;;;;7.95;2.50;;;14.60;99.90;;;;;;5101285;28;20047;-72
2022/04/26 16:53:56;;;;;;;9.25;2.50;;;14.60;99.90;;;;;;5109453;28;20093;-72
2022/04/26 16:56:22;;;;;;;4.13;2.42;;;14.50;99.90;;;;;;5099718;28;20070;-71
2022/04/26 16:58:48;;;;;;;11.07;2.72;;;14.20;99.90;;;;;;5108204;28;20490;-71
2022/04/26 17:01:13;;;;;;;5.57;2.10;;;13.90;99.90;;;;;;5088736;28;20374;-71
2022/04/26 17:03:39;;;;;;;6.97;2.33;;;13.40;99.90;;;;;;5106146;28;20049;-71
2022/04/26 17:06:05;;;;;;;6.65;2.40;;;13.00;99.90;;;;;;5089277;28;20044;-72
2022/04/26 17:08:31;;;;;;;4.57;1.80;;;12.60;99.90;;;;;;5102279;28;20036;-71
2022/04/26 17:11:41;;;;;;;6.75;2.15;;;12.30;99.90;;;;;;5103115;28;20494;-71
2022/04/26 17:13:45;;;;;;;15.43;2.92;;;12.10;99.90;;;;;;5102224;28;20197;-73
2022/04/26 17:16:11;;;;;;;7.40;2.92;;;12.00;99.90;;;;;;5082692;28;20040;-73